PST: 23:48 MST: 00:48 CST: 01:48 EST: 02:48 LDN: 07:48 UTC: 06:48
User Agent: CCBot/2.0 (http://commoncrawl.org/faq/)
IP Address: 54.226.110.143
Hostname: ec2-54-226-110-143.compute-1.amazonaws.com

METAR:
KBFI 280553Z 34004KT 10SM CLR 14/07 A3013 RMK AO2 SLP204 T01390072 10200 20139 50000 $
KBFI 280453Z 34003KT 10SM CLR 14/07 A3014 RMK AO2 SLP206 T01440067 $
KBFI 280353Z AUTO 34003KT 10SM CLR 15/06 A3014 RMK AO2 SLP205 T01500061 TSNO $
KBFI 280253Z VRB04KT 10SM SCT250 16/05 A3013 RMK AO2 SLP204 T01610050 56005 $

TAF:
KBFI 280520Z 2806/2906 VRB03KT P6SM BKN200
FM 281200 00000KT P6SM SCT200
FM 281800 34006KT P6SM SKC

KBFI 280304Z 2803/2824 VRB04KT P6SM SKC
FM 280900 00000KT P6SM SCT200
FM 281800 34006KT P6SM SKC

KBFI 272320Z 2800/2824 31008KT P6SM FEW060
FM 280400 VRB03KT P6SM SKC
FM 281100 VRB03KT P6SM SCT025
FM 281400 VRB03KT P6SM BKN025
FM 281600 VRB03KT P6SM BKN035
FM 281700 31007KT P6SM FEW040

KBFI 271731Z 2718/2818 34007KT P6SM FEW020 SCT030 BKN060
FM 271900 33008KT P6SM SCT060
FM 280400 VRB03KT P6SM FEW060 SCT200
FM 281000 VRB03KT P6SM BKN030 BKN200
FM 281300 VRB03KT 6SM BR OVC025
FM 281600 32005KT P6SM BKN035
FM 281700 31007KT P6SM SCT050

KBFI 271507Z 2715/2812 32008KT P6SM SCT020 OVC035
FM 271700 36006KT P6SM FEW030 BKN040
FM 271900 36008KT P6SM SCT045
FM 280800 VRB03KT P6SM BKN035

KBFI 271120Z 2712/2812 06006KT P6SM BKN022 OVC040
FM 271800 36006KT P6SM SCT020 BKN040
FM 272200 36008KT P6SM SCT040
FM 280800 VRB03KT P6SM BKN035

KBFI 270903Z 2709/2806 VRB03KT P6SM SCT020 BKN035 TEMPO 2709/2712 BKN020 OVC035
FM 271200 VRB03KT P6SM BKN017 OVC035
FM 271800 33006KT P6SM SCT020 BKN040
FM 272200 36010KT P6SM SCT040

KBFI 270902Z 2709/2806 VRB03KT P6SM SCT023 BKN040 TEMPO 2709/2712 BKN023 OVC040
FM 271200 VRB03KT P6SM BKN020 OVC040
FM 271800 33006KT P6SM SCT020 BKN040
FM 272200 36010KT P6SM SCT040

KBFI 270520Z 2706/2806 VRB03KT P6SM SCT040 BKN100
FM 270900 VRB04KT P6SM SCT015 BKN040 BKN100 TEMPO 2712/2716 5SM -SHRA BKN018 OVC040
FM 271800 33006KT P6SM SCT020 BKN040
FM 272200 36010KT P6SM SCT040